createdAt,value
2017-04-10T00:00:57.257Z,75.42
2017-04-10T00:05:54.892Z,75.03
2017-04-10T00:10:50.959Z,74.93
2017-04-10T00:15:47.336Z,74.55
2017-04-10T00:20:43.949Z,74.37
2017-04-10T00:25:40.234Z,74.55
2017-04-10T00:30:36.567Z,75.37
2017-04-10T00:35:33.772Z,75.18
2017-04-10T00:40:30.117Z,75.28
2017-04-10T00:45:26.658Z,74.71
2017-04-10T00:50:23.130Z,74.42
2017-04-10T00:55:20.667Z,73.66
2017-04-10T01:00:16.491Z,73.18
2017-04-10T01:05:13.089Z,72.51
2017-04-10T01:10:09.843Z,71.75
2017-04-10T01:15:06.444Z,71.27
2017-04-10T01:20:02.939Z,71.41
2017-04-10T01:24:59.365Z,71.46
2017-04-10T01:29:56.504Z,71.18
2017-04-10T01:34:53.193Z,71.27
2017-04-10T01:39:50.065Z,71.37
2017-04-10T01:44:47.010Z,71.46
2017-04-10T01:49:43.595Z,71.18
2017-04-10T01:54:40.157Z,71.84
2017-04-10T01:59:36.341Z,71.37
2017-04-10T02:04:32.983Z,71.56
2017-04-10T02:09:29.472Z,71.46
2017-04-10T02:14:25.909Z,72.09
2017-04-10T02:19:22.259Z,72.03
2017-04-10T02:24:18.895Z,72.80
2017-04-10T02:29:15.142Z,72.86
2017-04-10T02:34:11.832Z,72.38
2017-04-10T02:39:08.311Z,72.89
2017-04-10T02:44:04.839Z,72.57
2017-04-10T02:49:01.048Z,72.96
2017-04-10T02:53:57.489Z,73.24
2017-04-10T02:58:53.681Z,73.43
2017-04-10T03:03:50.429Z,73.85
2017-04-10T03:08:46.590Z,73.91
2017-04-10T03:13:42.835Z,73.91
2017-04-10T03:18:39.487Z,73.72
2017-04-10T03:23:35.992Z,74.29
2017-04-10T03:28:32.834Z,74.57
2017-04-10T03:33:29.678Z,74.67
2017-04-10T03:38:26.226Z,75.34
2017-04-10T03:43:22.657Z,75.24
2017-04-10T03:48:19.321Z,74.67
2017-04-10T03:53:15.950Z,75.53
2017-04-10T03:58:12.488Z,75.72
2017-04-10T04:03:09.044Z,75.72
2017-04-10T04:08:05.513Z,76.39
2017-04-10T04:13:02.127Z,76.10
2017-04-10T04:17:58.647Z,76.77
2017-04-10T04:22:55.706Z,77.53
2017-04-10T04:27:52.278Z,78.10
2017-04-10T04:32:48.746Z,77.44
2017-04-10T04:37:45.535Z,77.34
2017-04-10T04:47:42.161Z,78.10
2017-04-10T04:52:39.058Z,78.20
2017-04-10T04:57:35.386Z,78.30
2017-04-10T05:02:32.165Z,77.62
2017-04-10T05:07:29.523Z,78.77
2017-04-10T05:12:25.761Z,77.47
2017-04-10T05:17:22.267Z,77.09
2017-04-10T05:22:20.072Z,78.33
2017-04-10T05:27:16.472Z,78.43
2017-04-10T05:32:13.181Z,79.38
2017-04-10T05:37:09.760Z,80.24
2017-04-10T05:42:05.941Z,81.48
2017-04-10T05:47:02.571Z,81.10
2017-04-10T05:51:59.114Z,82.91
2017-04-10T05:56:55.598Z,83.83
2017-04-10T06:01:52.250Z,84.25
2017-04-10T06:06:49.022Z,84.34
2017-04-10T06:11:45.507Z,84.06
2017-04-10T06:16:44.113Z,84.82
2017-04-10T06:21:40.637Z,84.72
2017-04-10T06:26:36.827Z,85.30
2017-04-10T06:31:34.153Z,85.58
2017-04-10T06:36:31.242Z,86.44
2017-04-10T06:41:29.138Z,86.92
2017-04-10T06:46:25.453Z,86.06
2017-04-10T06:51:21.939Z,86.92
2017-04-10T06:56:18.716Z,86.82
2017-04-10T07:01:15.272Z,86.06
2017-04-10T07:06:12.159Z,86.35
2017-04-10T07:11:08.754Z,86.06
2017-04-10T07:16:05.275Z,86.54
2017-04-10T07:21:01.823Z,86.82
2017-04-10T07:25:59.002Z,86.35
2017-04-10T07:30:56.038Z,86.63
2017-04-10T07:35:52.323Z,86.54
2017-04-10T07:40:48.759Z,86.54
2017-04-10T07:45:45.092Z,87.21
2017-04-10T07:50:41.595Z,85.97
2017-04-10T07:55:38.618Z,86.44
2017-04-10T08:00:35.628Z,85.15
2017-04-10T08:05:33.404Z,84.86
2017-04-10T08:10:30.368Z,83.24
2017-04-10T08:15:27.212Z,82.57
2017-04-10T08:20:24.206Z,81.85
2017-04-10T08:25:20.819Z,82.23
2017-04-10T08:30:17.289Z,82.52
2017-04-10T08:35:13.783Z,82.86
2017-04-10T08:40:09.954Z,83.62
2017-04-10T08:45:06.190Z,83.72
2017-04-10T08:50:04.954Z,84.44
2017-04-10T08:55:00.598Z,84.34
2017-04-10T08:59:57.159Z,83.29
2017-04-10T09:04:54.800Z,83.67
2017-04-10T09:09:51.488Z,83.11
2017-04-10T09:14:47.973Z,82.67
2017-04-10T09:19:44.716Z,83.20
2017-04-10T09:24:44.326Z,83.29
2017-04-10T09:29:40.685Z,83.20
2017-04-10T09:34:37.041Z,84.82
2017-04-10T09:39:33.891Z,85.35
2017-04-10T09:44:29.921Z,85.35
2017-04-10T09:49:26.980Z,85.87
2017-04-10T09:54:23.846Z,84.72
2017-04-10T09:59:21.165Z,84.72
2017-04-10T10:04:17.846Z,82.95
2017-04-10T10:09:14.203Z,82.82
2017-04-10T10:14:10.834Z,83.24
2017-04-10T10:19:07.842Z,83.53
2017-04-10T10:24:04.299Z,82.76
2017-04-10T10:29:00.526Z,83.62
2017-04-10T10:33:57.479Z,83.34
2017-04-10T10:38:54.446Z,83.24
2017-04-10T10:43:52.510Z,81.81
2017-04-10T10:48:49.166Z,81.14
2017-04-10T10:53:45.536Z,81.43
2017-04-10T10:58:41.842Z,81.62
2017-04-10T11:03:39.022Z,82.09
2017-04-10T11:08:35.685Z,82.63
2017-04-10T11:13:33.182Z,82.63
2017-04-10T11:18:29.046Z,83.20
2017-04-10T11:23:25.479Z,82.91
2017-04-10T11:28:22.342Z,81.38
2017-04-10T11:33:19.240Z,80.76
2017-04-10T11:38:17.636Z,79.94
2017-04-10T11:43:13.914Z,79.43
2017-04-10T11:48:10.524Z,76.60
2017-04-10T11:53:09.711Z,74.91
2017-04-10T11:58:07.883Z,72.53
2017-04-10T12:03:04.853Z,71.26
2017-04-10T12:08:01.625Z,69.79
2017-04-10T12:12:57.277Z,69.50
2017-04-10T12:17:53.284Z,65.84
2017-04-10T12:22:49.354Z,68.23
2017-04-10T12:27:45.425Z,69.95
2017-04-10T12:32:41.662Z,71.28
2017-04-10T12:37:38.090Z,71.25
2017-04-10T12:42:35.260Z,68.99
2017-04-10T12:47:35.114Z,63.96
2017-04-10T12:52:32.361Z,60.16
2017-04-10T12:57:29.107Z,57.97
2017-04-10T13:02:27.401Z,56.15
2017-04-10T13:07:23.385Z,59.78
2017-04-10T13:12:18.652Z,60.80
2017-04-10T13:17:14.537Z,61.09
2017-04-10T13:22:11.405Z,58.41
2017-04-10T13:27:08.463Z,57.93
2017-04-10T13:32:04.757Z,57.75
2017-04-10T13:37:01.043Z,59.37
2017-04-10T13:41:57.940Z,57.46
2017-04-10T13:46:55.263Z,56.67
2017-04-10T13:51:51.463Z,54.39
2017-04-10T13:56:49.744Z,52.03
2017-04-10T14:01:46.329Z,54.33
2017-04-10T14:06:42.485Z,53.16
2017-04-10T14:11:39.851Z,51.17
2017-04-10T14:16:37.284Z,48.90
2017-04-10T14:21:34.731Z,51.36
2017-04-10T14:26:31.003Z,53.44
2017-04-10T14:31:27.102Z,54.21
2017-04-10T14:36:24.143Z,52.20
2017-04-10T14:41:21.357Z,48.57
2017-04-10T14:46:18.976Z,48.75
2017-04-10T14:51:15.834Z,47.53
2017-04-10T14:56:12.216Z,49.14
2017-04-10T15:01:10.391Z,48.18
2017-04-10T15:06:07.135Z,48.95
2017-04-10T15:11:02.809Z,51.79
2017-04-10T15:15:58.489Z,53.20
2017-04-10T15:20:55.014Z,52.81
2017-04-10T15:25:51.579Z,51.19
2017-04-10T15:30:48.419Z,50.14
2017-04-10T15:35:44.744Z,50.14
2017-04-10T15:40:41.466Z,50.14
2017-04-10T15:45:37.799Z,51.67
2017-04-10T15:50:34.339Z,52.62
2017-04-10T15:55:30.982Z,54.15
2017-04-10T16:00:28.458Z,56.06
2017-04-10T16:05:24.938Z,54.91
2017-04-10T16:10:21.063Z,53.58
2017-04-10T16:15:17.443Z,53.29
2017-04-10T16:20:14.242Z,52.72
2017-04-10T16:25:10.781Z,53.55
2017-04-10T16:30:14.379Z,55.27
2017-04-10T16:35:10.421Z,56.23
2017-04-10T16:40:06.822Z,56.60
2017-04-10T16:45:03.224Z,57.56
2017-04-10T16:50:00.064Z,58.51
2017-04-10T16:54:56.279Z,59.28
2017-04-10T16:59:52.621Z,59.25
2017-04-10T17:04:49.577Z,59.73
2017-04-10T17:09:45.978Z,61.16
2017-04-10T17:14:43.835Z,62.02
2017-04-10T17:19:47.955Z,62.68
2017-04-10T17:24:43.257Z,62.02
2017-04-10T17:29:39.908Z,61.35
2017-04-10T17:34:36.638Z,62.49
2017-04-10T17:44:37.552Z,61.73
2017-04-10T17:49:34.055Z,61.60
2017-04-10T17:54:30.638Z,62.08
2017-04-10T17:59:27.118Z,62.46
2017-04-10T18:04:24.623Z,63.32
2017-04-10T18:09:20.962Z,62.65
2017-04-10T18:14:17.527Z,62.37
2017-04-10T18:19:14.344Z,63.48
2017-04-10T18:24:10.715Z,63.39
2017-04-10T18:29:07.066Z,63.29
2017-04-10T18:34:04.388Z,63.96
2017-04-10T18:39:00.559Z,64.24
2017-04-10T18:43:57.019Z,65.20
2017-04-10T18:48:53.824Z,67.00
2017-04-10T18:53:50.160Z,67.39
2017-04-10T18:58:47.251Z,68.21
2017-04-10T19:03:44.030Z,67.96
2017-04-10T19:08:40.512Z,69.93
2017-04-10T19:13:37.168Z,69.54
2017-04-10T19:18:33.467Z,69.54
2017-04-10T19:23:30.289Z,70.12
2017-04-10T19:28:26.670Z,70.78
2017-04-10T19:33:23.466Z,70.59
2017-04-10T19:38:19.686Z,71.22
2017-04-10T19:43:16.747Z,72.37
2017-04-10T19:48:13.155Z,72.56
2017-04-10T19:53:09.576Z,73.36
2017-04-10T19:58:06.013Z,73.13
2017-04-10T20:03:02.642Z,73.32
2017-04-10T20:07:59.135Z,72.94
2017-04-10T20:12:55.875Z,73.80
2017-04-10T20:17:52.321Z,73.80
2017-04-10T20:22:48.856Z,74.27
2017-04-10T20:27:45.154Z,75.04
2017-04-10T20:32:41.837Z,75.23
2017-04-10T20:37:38.679Z,75.79
2017-04-10T20:42:34.799Z,76.23
2017-04-10T20:47:31.169Z,76.04
2017-04-10T20:52:28.113Z,77.56
2017-04-10T20:57:24.101Z,77.19
2017-04-10T21:02:20.568Z,77.85
2017-04-10T21:07:17.099Z,77.85
2017-04-10T21:12:13.648Z,77.28
2017-04-10T21:17:10.211Z,78.04
2017-04-10T21:22:06.815Z,79.28
2017-04-10T21:27:03.222Z,79.19
2017-04-10T21:31:59.443Z,79.85
2017-04-10T21:36:56.039Z,79.85
2017-04-10T21:41:52.889Z,79.57
2017-04-10T21:46:49.964Z,80.13
2017-04-10T21:51:46.098Z,80.95
2017-04-10T21:56:43.092Z,80.95
2017-04-10T22:01:40.029Z,80.95
2017-04-10T22:06:37.202Z,81.43
2017-04-10T22:11:37.861Z,81.71
2017-04-10T22:16:34.182Z,81.43
2017-04-10T22:21:30.605Z,81.43
2017-04-10T22:26:27.051Z,81.24
2017-04-10T22:31:24.327Z,81.14
2017-04-10T22:36:20.369Z,81.38
2017-04-10T22:41:17.638Z,81.52
2017-04-10T22:46:14.528Z,82.09
2017-04-10T22:51:10.929Z,82.05
2017-04-10T22:56:07.429Z,82.05
2017-04-10T23:01:04.735Z,81.96
2017-04-10T23:06:01.623Z,82.34
2017-04-10T23:10:57.775Z,82.71
2017-04-10T23:15:54.430Z,82.62
2017-04-10T23:20:50.806Z,82.62
2017-04-10T23:25:47.403Z,82.43
2017-04-10T23:30:43.870Z,82.53
2017-04-10T23:35:40.392Z,82.96
2017-04-10T23:40:36.550Z,83.44
2017-04-10T23:45:32.996Z,83.48
2017-04-10T23:50:29.508Z,83.44
2017-04-10T23:55:26.474Z,83.72
